sensor_id;sensor_type;location;lat;lon;timestamp;pressure;altitude;pressure_sealevel;temperature;humidity
59274;BME280;45044;41.572;24.730;2022-11-11T00:01:13;92354.78;;;3.26;100.00
59274;BME280;45044;41.572;24.730;2022-11-11T00:03:41;92352.66;;;3.37;100.00
59274;BME280;45044;41.572;24.730;2022-11-11T00:06:13;92355.25;;;3.37;100.00
59274;BME280;45044;41.572;24.730;2022-11-11T00:08:41;92339.19;;;3.35;100.00
59274;BME280;45044;41.572;24.730;2022-11-11T00:11:10;92359.28;;;3.43;100.00
59274;BME280;45044;41.572;24.730;2022-11-11T00:13:38;92351.25;;;3.31;100.00
59274;BME280;45044;41.572;24.730;2022-11-11T00:16:08;92353.22;;;3.16;100.00
59274;BME280;45044;41.572;24.730;2022-11-11T00:18:35;92363.31;;;3.18;100.00
59274;BME280;45044;41.572;24.730;2022-11-11T00:21:21;92357.66;;;3.25;100.00
59274;BME280;45044;41.572;24.730;2022-11-11T00:24:26;92355.38;;;3.23;100.00
59274;BME280;45044;41.572;24.730;2022-11-11T00:27:12;92356.72;;;3.20;100.00
59274;BME280;45044;41.572;24.730;2022-11-11T00:29:39;92343.19;;;3.32;100.00
59274;BME280;45044;41.572;24.730;2022-11-11T00:32:07;92356.63;;;3.34;100.00
59274;BME280;45044;41.572;24.730;2022-11-11T00:34:51;92346.44;;;3.06;100.00
59274;BME280;45044;41.572;24.730;2022-11-11T00:37:38;92324.22;;;2.91;100.00
59274;BME280;45044;41.572;24.730;2022-11-11T00:40:05;92350.41;;;3.04;100.00
59274;BME280;45044;41.572;24.730;2022-11-11T00:42:32;92344.69;;;2.93;100.00
59274;BME280;45044;41.572;24.730;2022-11-11T00:44:59;92347.81;;;3.04;100.00
59274;BME280;45044;41.572;24.730;2022-11-11T00:47:26;92338.94;;;2.96;100.00
59274;BME280;45044;41.572;24.730;2022-11-11T00:50:16;92339.81;;;2.91;100.00
59274;BME280;45044;41.572;24.730;2022-11-11T00:53:11;92331.22;;;2.82;100.00
59274;BME280;45044;41.572;24.730;2022-11-11T00:55:39;92342.81;;;2.75;100.00
59274;BME280;45044;41.572;24.730;2022-11-11T00:58:06;92329.41;;;2.91;100.00
59274;BME280;45044;41.572;24.730;2022-11-11T01:00:33;92331.78;;;2.70;100.00
59274;BME280;45044;41.572;24.730;2022-11-11T01:03:00;92341.84;;;2.71;100.00
59274;BME280;45044;41.572;24.730;2022-11-11T01:05:27;92335.22;;;2.88;100.00
59274;BME280;45044;41.572;24.730;2022-11-11T01:07:54;92333.09;;;2.90;100.00
59274;BME280;45044;41.572;24.730;2022-11-11T01:10:22;92318.69;;;2.84;100.00
59274;BME280;45044;41.572;24.730;2022-11-11T01:13:06;92331.38;;;2.85;100.00
59274;BME280;45044;41.572;24.730;2022-11-11T01:15:40;92321.16;;;2.89;100.00
59274;BME280;45044;41.572;24.730;2022-11-11T01:18:08;92324.56;;;2.98;100.00
59274;BME280;45044;41.572;24.730;2022-11-11T01:20:35;92308.13;;;2.80;100.00
59274;BME280;45044;41.572;24.730;2022-11-11T01:23:07;92320.09;;;2.90;100.00
59274;BME280;45044;41.572;24.730;2022-11-11T01:25:37;92322.88;;;2.94;100.00
59274;BME280;45044;41.572;24.730;2022-11-11T01:28:05;92309.56;;;2.95;100.00
59274;BME280;45044;41.572;24.730;2022-11-11T01:30:34;92322.38;;;2.83;100.00
59274;BME280;45044;41.572;24.730;2022-11-11T01:33:01;92315.03;;;2.85;100.00
59274;BME280;45044;41.572;24.730;2022-11-11T01:35:28;92307.97;;;2.77;100.00
59274;BME280;45044;41.572;24.730;2022-11-11T01:37:57;92314.06;;;2.72;100.00
59274;BME280;45044;41.572;24.730;2022-11-11T01:40:25;92314.09;;;2.81;100.00
59274;BME280;45044;41.572;24.730;2022-11-11T01:45:57;92313.97;;;2.86;100.00
59274;BME280;45044;41.572;24.730;2022-11-11T01:48:35;92305.84;;;2.79;100.00
59274;BME280;45044;41.572;24.730;2022-11-11T01:51:50;92292.66;;;2.66;100.00
59274;BME280;45044;41.572;24.730;2022-11-11T01:56:49;92311.72;;;2.61;100.00
59274;BME280;45044;41.572;24.730;2022-11-11T01:59:17;92317.47;;;2.49;100.00
59274;BME280;45044;41.572;24.730;2022-11-11T02:01:44;92313.50;;;2.52;100.00
59274;BME280;45044;41.572;24.730;2022-11-11T02:04:11;92315.56;;;2.64;100.00
59274;BME280;45044;41.572;24.730;2022-11-11T02:06:59;92297.63;;;2.54;100.00
59274;BME280;45044;41.572;24.730;2022-11-11T02:09:28;92317.81;;;2.57;100.00
59274;BME280;45044;41.572;24.730;2022-11-11T02:11:57;92319.06;;;2.36;100.00
59274;BME280;45044;41.572;24.730;2022-11-11T02:14:47;92317.34;;;2.55;100.00
59274;BME280;45044;41.572;24.730;2022-11-11T02:17:15;92294.56;;;2.51;100.00
59274;BME280;45044;41.572;24.730;2022-11-11T02:19:49;92312.47;;;2.62;100.00
59274;BME280;45044;41.572;24.730;2022-11-11T02:25:01;92323.09;;;2.43;100.00
59274;BME280;45044;41.572;24.730;2022-11-11T02:27:30;92320.66;;;2.46;100.00
59274;BME280;45044;41.572;24.730;2022-11-11T02:29:59;92316.88;;;2.30;100.00
59274;BME280;45044;41.572;24.730;2022-11-11T02:32:26;92309.84;;;2.21;100.00
59274;BME280;45044;41.572;24.730;2022-11-11T02:34:53;92314.00;;;2.31;100.00
59274;BME280;45044;41.572;24.730;2022-11-11T02:37:22;92325.69;;;2.43;100.00
59274;BME280;45044;41.572;24.730;2022-11-11T02:39:53;92326.44;;;2.43;100.00
59274;BME280;45044;41.572;24.730;2022-11-11T02:42:30;92323.56;;;2.45;100.00
59274;BME280;45044;41.572;24.730;2022-11-11T02:44:57;92320.66;;;2.46;100.00
59274;BME280;45044;41.572;24.730;2022-11-11T02:47:25;92330.31;;;2.55;100.00
59274;BME280;45044;41.572;24.730;2022-11-11T02:49:52;92328.91;;;2.48;100.00
59274;BME280;45044;41.572;24.730;2022-11-11T02:52:20;92315.00;;;2.44;100.00
59274;BME280;45044;41.572;24.730;2022-11-11T02:54:46;92326.19;;;2.54;100.00
59274;BME280;45044;41.572;24.730;2022-11-11T02:57:15;92325.03;;;2.60;100.00
59274;BME280;45044;41.572;24.730;2022-11-11T02:59:43;92330.78;;;2.57;100.00
59274;BME280;45044;41.572;24.730;2022-11-11T03:02:10;92335.16;;;2.47;100.00
59274;BME280;45044;41.572;24.730;2022-11-11T03:04:37;92330.69;;;2.39;100.00
59274;BME280;45044;41.572;24.730;2022-11-11T03:07:05;92343.31;;;2.09;100.00
59274;BME280;45044;41.572;24.730;2022-11-11T03:09:32;92333.84;;;2.27;100.00
59274;BME280;45044;41.572;24.730;2022-11-11T03:12:00;92328.22;;;2.34;100.00
59274;BME280;45044;41.572;24.730;2022-11-11T03:14:27;92327.28;;;2.30;100.00
59274;BME280;45044;41.572;24.730;2022-11-11T03:16:53;92334.59;;;2.05;100.00
59274;BME280;45044;41.572;24.730;2022-11-11T03:19:39;92330.47;;;2.03;100.00
59274;BME280;45044;41.572;24.730;2022-11-11T03:22:06;92332.00;;;2.05;100.00
59274;BME280;45044;41.572;24.730;2022-11-11T03:24:52;92330.47;;;2.03;100.00
59274;BME280;45044;41.572;24.730;2022-11-11T03:27:38;92339.19;;;2.08;100.00
59274;BME280;45044;41.572;24.730;2022-11-11T03:30:07;92331.50;;;2.02;100.00
59274;BME280;45044;41.572;24.730;2022-11-11T03:32:34;92334.47;;;2.10;100.00
59274;BME280;45044;41.572;24.730;2022-11-11T03:35:00;92335.06;;;2.07;100.00
59274;BME280;45044;41.572;24.730;2022-11-11T03:37:27;92344.25;;;2.13;100.00
59274;BME280;45044;41.572;24.730;2022-11-11T03:40:12;92327.88;;;2.03;100.00
59274;BME280;45044;41.572;24.730;2022-11-11T03:42:39;92324.09;;;2.10;100.00
59274;BME280;45044;41.572;24.730;2022-11-11T03:45:07;92339.03;;;2.27;100.00
59274;BME280;45044;41.572;24.730;2022-11-11T03:47:34;92342.06;;;2.29;100.00
59274;BME280;45044;41.572;24.730;2022-11-11T03:50:01;92338.00;;;2.37;100.00
59274;BME280;45044;41.572;24.730;2022-11-11T03:52:27;92337.41;;;2.40;100.00
59274;BME280;45044;41.572;24.730;2022-11-11T03:54:54;92334.59;;;2.27;100.00
59274;BME280;45044;41.572;24.730;2022-11-11T03:57:21;92332.81;;;2.14;100.00
59274;BME280;45044;41.572;24.730;2022-11-11T03:59:56;92332.00;;;2.05;100.00
59274;BME280;45044;41.572;24.730;2022-11-11T04:02:23;92328.22;;;2.11;100.00
59274;BME280;45044;41.572;24.730;2022-11-11T04:05:08;92322.97;;;2.02;100.00
59274;BME280;45044;41.572;24.730;2022-11-11T04:07:56;92335.41;;;2.14;100.00
59274;BME280;45044;41.572;24.730;2022-11-11T04:10:41;92337.78;;;2.01;100.00
59274;BME280;45044;41.572;24.730;2022-11-11T04:13:08;92330.75;;;2.02;100.00
59274;BME280;45044;41.572;24.730;2022-11-11T04:15:53;92333.31;;;2.16;100.00
59274;BME280;45044;41.572;24.730;2022-11-11T04:18:33;92323.84;;;2.20;100.00
59274;BME280;45044;41.572;24.730;2022-11-11T04:21:18;92337.06;;;2.33;100.00
59274;BME280;45044;41.572;24.730;2022-11-11T04:24:03;92338.66;;;2.20;100.00
59274;BME280;45044;41.572;24.730;2022-11-11T04:26:52;92338.59;;;2.34;100.00
59274;BME280;45044;41.572;24.730;2022-11-11T04:29:20;92338.91;;;2.32;100.00
59274;BME280;45044;41.572;24.730;2022-11-11T04:32:19;92342.56;;;2.08;100.00
59274;BME280;45044;41.572;24.730;2022-11-11T04:35:03;92350.38;;;2.17;100.00
59274;BME280;45044;41.572;24.730;2022-11-11T04:37:33;92329.63;;;2.17;100.00
59274;BME280;45044;41.572;24.730;2022-11-11T04:40:00;92344.03;;;2.23;100.00
59274;BME280;45044;41.572;24.730;2022-11-11T04:42:46;92352.06;;;2.36;100.00
59274;BME280;45044;41.572;24.730;2022-11-11T04:45:13;92347.16;;;2.34;100.00
59274;BME280;45044;41.572;24.730;2022-11-11T04:47:58;92351.69;;;2.29;100.00
59274;BME280;45044;41.572;24.730;2022-11-11T04:50:28;92350.75;;;2.24;100.00
59274;BME280;45044;41.572;24.730;2022-11-11T04:52:56;92349.25;;;2.09;100.00
59274;BME280;45044;41.572;24.730;2022-11-11T04:55:23;92346.72;;;2.18;100.00
59274;BME280;45044;41.572;24.730;2022-11-11T04:58:09;92341.53;;;2.18;100.00
59274;BME280;45044;41.572;24.730;2022-11-11T05:00:36;92351.00;;;2.14;100.00
59274;BME280;45044;41.572;24.730;2022-11-11T05:03:03;92341.53;;;2.18;100.00
59274;BME280;45044;41.572;24.730;2022-11-11T05:05:59;92352.69;;;2.19;100.00
59274;BME280;45044;41.572;24.730;2022-11-11T05:08:46;92352.00;;;2.27;100.00
59274;BME280;45044;41.572;24.730;2022-11-11T05:13:54;92360.31;;;2.38;100.00
59274;BME280;45044;41.572;24.730;2022-11-11T05:16:54;92365.16;;;2.31;100.00
59274;BME280;45044;41.572;24.730;2022-11-11T05:19:40;92363.97;;;2.37;100.00
59274;BME280;45044;41.572;24.730;2022-11-11T05:22:38;92373.53;;;2.50;100.00
59274;BME280;45044;41.572;24.730;2022-11-11T05:25:06;92373.69;;;2.54;100.00
59274;BME280;45044;41.572;24.730;2022-11-11T05:27:52;92373.22;;;2.52;100.00
59274;BME280;45044;41.572;24.730;2022-11-11T05:30:19;92374.91;;;2.57;100.00
59274;BME280;45044;41.572;24.730;2022-11-11T05:32:47;92376.16;;;2.59;100.00
59274;BME280;45044;41.572;24.730;2022-11-11T05:35:15;92373.81;;;2.49;100.00
59274;BME280;45044;41.572;24.730;2022-11-11T05:37:42;92386.91;;;2.44;100.00
59274;BME280;45044;41.572;24.730;2022-11-11T05:40:10;92387.38;;;2.46;100.00
59274;BME280;45044;41.572;24.730;2022-11-11T05:42:41;92394.28;;;2.50;100.00
59274;BME280;45044;41.572;24.730;2022-11-11T05:45:14;92381.50;;;2.54;100.00
59274;BME280;45044;41.572;24.730;2022-11-11T05:47:41;92391.31;;;2.66;100.00
59274;BME280;45044;41.572;24.730;2022-11-11T05:50:08;92391.66;;;2.73;100.00
59274;BME280;45044;41.572;24.730;2022-11-11T05:52:35;92387.09;;;2.70;100.00
59274;BME280;45044;41.572;24.730;2022-11-11T05:55:01;92390.28;;;2.67;100.00
59274;BME280;45044;41.572;24.730;2022-11-11T05:57:28;92397.72;;;2.60;100.00
59274;BME280;45044;41.572;24.730;2022-11-11T05:59:55;92387.34;;;2.60;100.00
59274;BME280;45044;41.572;24.730;2022-11-11T06:02:24;92390.66;;;2.83;100.00
59274;BME280;45044;41.572;24.730;2022-11-11T06:04:51;92385.03;;;2.90;100.00
59274;BME280;45044;41.572;24.730;2022-11-11T06:07:18;92396.81;;;2.96;100.00
59274;BME280;45044;41.572;24.730;2022-11-11T06:09:45;92399.03;;;3.03;100.00
59274;BME280;45044;41.572;24.730;2022-11-11T06:12:12;92367.66;;;2.99;100.00
59274;BME280;45044;41.572;24.730;2022-11-11T06:14:38;92394.41;;;3.32;100.00
59274;BME280;45044;41.572;24.730;2022-11-11T06:17:05;92391.88;;;3.58;100.00
59274;BME280;45044;41.572;24.730;2022-11-11T06:19:32;92397.00;;;4.43;100.00
59274;BME280;45044;41.572;24.730;2022-11-11T06:21:58;92395.38;;;5.44;100.00
59274;BME280;45044;41.572;24.730;2022-11-11T06:24:27;92390.38;;;6.42;100.00
59274;BME280;45044;41.572;24.730;2022-11-11T06:26:54;92404.38;;;7.64;100.00
59274;BME280;45044;41.572;24.730;2022-11-11T06:29:22;92401.81;;;8.71;100.00
59274;BME280;45044;41.572;24.730;2022-11-11T06:31:48;92394.78;;;9.20;99.81
59274;BME280;45044;41.572;24.730;2022-11-11T06:34:15;92403.44;;;10.41;88.77
59274;BME280;45044;41.572;24.730;2022-11-11T06:36:42;92395.59;;;11.24;83.72
59274;BME280;45044;41.572;24.730;2022-11-11T06:39:09;92391.72;;;11.65;76.72
59274;BME280;45044;41.572;24.730;2022-11-11T06:41:35;92394.97;;;12.67;71.94
59274;BME280;45044;41.572;24.730;2022-11-11T06:44:02;92390.56;;;12.78;73.01
59274;BME280;45044;41.572;24.730;2022-11-11T06:46:29;92391.88;;;13.34;68.15
59274;BME280;45044;41.572;24.730;2022-11-11T06:48:56;92387.84;;;13.96;63.93
59274;BME280;45044;41.572;24.730;2022-11-11T06:51:22;92390.19;;;14.87;59.18
59274;BME280;45044;41.572;24.730;2022-11-11T06:53:49;92391.88;;;13.79;61.93
59274;BME280;45044;41.572;24.730;2022-11-11T06:56:16;92394.50;;;14.39;62.12
59274;BME280;45044;41.572;24.730;2022-11-11T06:58:43;92391.81;;;15.39;58.36
59274;BME280;45044;41.572;24.730;2022-11-11T07:01:11;92394.16;;;13.81;65.92
59274;BME280;45044;41.572;24.730;2022-11-11T07:03:38;92397.44;;;15.19;60.64
59274;BME280;45044;41.572;24.730;2022-11-11T07:06:05;92393.72;;;15.93;56.60
59274;BME280;45044;41.572;24.730;2022-11-11T07:08:32;92398.81;;;16.77;55.12
59274;BME280;45044;41.572;24.730;2022-11-11T07:10:59;92380.03;;;17.25;52.53
59274;BME280;45044;41.572;24.730;2022-11-11T07:13:36;92392.25;;;18.18;50.04
59274;BME280;45044;41.572;24.730;2022-11-11T07:16:03;92386.13;;;18.60;48.72
59274;BME280;45044;41.572;24.730;2022-11-11T07:18:30;92387.63;;;16.30;54.65
59274;BME280;45044;41.572;24.730;2022-11-11T07:20:57;92390.47;;;18.04;50.13
59274;BME280;45044;41.572;24.730;2022-11-11T07:23:23;92385.75;;;18.58;49.06
59274;BME280;45044;41.572;24.730;2022-11-11T07:25:50;92389.78;;;19.36;48.37
59274;BME280;45044;41.572;24.730;2022-11-11T07:28:17;92393.19;;;20.36;46.42
59274;BME280;45044;41.572;24.730;2022-11-11T07:30:43;92387.41;;;18.83;46.77
59274;BME280;45044;41.572;24.730;2022-11-11T07:33:10;92374.47;;;17.62;50.04
59274;BME280;45044;41.572;24.730;2022-11-11T07:35:36;92384.66;;;18.55;49.81
59274;BME280;45044;41.572;24.730;2022-11-11T07:38:03;92387.41;;;19.93;46.47
59274;BME280;45044;41.572;24.730;2022-11-11T07:40:30;92385.59;;;20.55;45.98
59274;BME280;45044;41.572;24.730;2022-11-11T07:42:57;92385.75;;;19.99;45.77
59274;BME280;45044;41.572;24.730;2022-11-11T07:45:23;92381.47;;;17.87;49.21
59274;BME280;45044;41.572;24.730;2022-11-11T07:47:50;92385.44;;;18.87;48.99
59274;BME280;45044;41.572;24.730;2022-11-11T07:50:17;92372.94;;;21.00;45.04
59274;BME280;45044;41.572;24.730;2022-11-11T07:52:48;92381.69;;;19.43;46.79
59274;BME280;45044;41.572;24.730;2022-11-11T07:55:19;92379.22;;;19.29;48.90
59274;BME280;45044;41.572;24.730;2022-11-11T07:57:46;92369.97;;;19.37;48.10
59274;BME280;45044;41.572;24.730;2022-11-11T08:00:17;92369.06;;;19.71;47.48
59274;BME280;45044;41.572;24.730;2022-11-11T08:02:47;92369.88;;;19.92;47.57
59274;BME280;45044;41.572;24.730;2022-11-11T08:05:15;92366.91;;;20.55;45.48
59274;BME280;45044;41.572;24.730;2022-11-11T08:07:41;92357.28;;;19.45;48.45
59274;BME280;45044;41.572;24.730;2022-11-11T08:10:09;92364.38;;;19.55;46.45
59274;BME280;45044;41.572;24.730;2022-11-11T08:12:37;92355.75;;;21.88;40.86
59274;BME280;45044;41.572;24.730;2022-11-11T08:15:22;92357.88;;;22.40;39.35
59274;BME280;45044;41.572;24.730;2022-11-11T08:17:48;92358.50;;;23.68;37.84
59274;BME280;45044;41.572;24.730;2022-11-11T08:20:15;92349.09;;;24.35;36.35
59274;BME280;45044;41.572;24.730;2022-11-11T08:22:42;92338.16;;;23.93;37.80
59274;BME280;45044;41.572;24.730;2022-11-11T08:25:30;92350.75;;;22.92;39.22
59274;BME280;45044;41.572;24.730;2022-11-11T08:27:58;92341.47;;;24.56;36.59
59274;BME280;45044;41.572;24.730;2022-11-11T08:30:25;92341.34;;;23.01;38.40
59274;BME280;45044;41.572;24.730;2022-11-11T08:32:59;92336.06;;;21.61;41.13
59274;BME280;45044;41.572;24.730;2022-11-11T08:35:46;92341.63;;;22.90;39.44
59274;BME280;45044;41.572;24.730;2022-11-11T08:38:13;92334.75;;;22.89;38.94
59274;BME280;45044;41.572;24.730;2022-11-11T08:40:40;92344.28;;;21.37;40.28
59274;BME280;45044;41.572;24.730;2022-11-11T08:43:07;92341.28;;;20.98;40.67
59274;BME280;45044;41.572;24.730;2022-11-11T08:45:33;92332.91;;;21.33;41.99
59274;BME280;45044;41.572;24.730;2022-11-11T08:48:00;92326.59;;;22.79;38.91
59274;BME280;45044;41.572;24.730;2022-11-11T08:50:27;92330.56;;;22.32;39.04
59274;BME280;45044;41.572;24.730;2022-11-11T08:52:53;92326.47;;;21.81;39.71
59274;BME280;45044;41.572;24.730;2022-11-11T08:55:20;92328.38;;;21.97;39.08
59274;BME280;45044;41.572;24.730;2022-11-11T08:57:47;92323.66;;;22.60;37.24
59274;BME280;45044;41.572;24.730;2022-11-11T09:00:14;92328.22;;;21.21;40.24
59274;BME280;45044;41.572;24.730;2022-11-11T09:02:42;92322.81;;;22.21;38.57
59274;BME280;45044;41.572;24.730;2022-11-11T09:05:08;92322.81;;;20.46;40.25
59274;BME280;45044;41.572;24.730;2022-11-11T09:07:35;92315.97;;;18.74;42.59
59274;BME280;45044;41.572;24.730;2022-11-11T09:10:02;92332.88;;;19.22;42.87
59274;BME280;45044;41.572;24.730;2022-11-11T09:12:29;92319.78;;;19.32;42.06
59274;BME280;45044;41.572;24.730;2022-11-11T09:14:59;92318.53;;;19.12;42.53
59274;BME280;45044;41.572;24.730;2022-11-11T09:17:26;92316.00;;;19.29;43.11
59274;BME280;45044;41.572;24.730;2022-11-11T09:19:53;92321.31;;;19.57;42.65
59274;BME280;45044;41.572;24.730;2022-11-11T09:22:20;92323.34;;;18.94;43.16
59274;BME280;45044;41.572;24.730;2022-11-11T09:24:46;92318.66;;;19.01;43.09
59274;BME280;45044;41.572;24.730;2022-11-11T09:27:13;92323.63;;;18.72;43.67
59274;BME280;45044;41.572;24.730;2022-11-11T09:29:40;92313.66;;;18.10;44.81
59274;BME280;45044;41.572;24.730;2022-11-11T09:32:06;92312.06;;;17.77;45.11
59274;BME280;45044;41.572;24.730;2022-11-11T09:34:33;92311.53;;;16.91;47.02
59274;BME280;45044;41.572;24.730;2022-11-11T09:37:00;92303.16;;;16.96;47.40
59274;BME280;45044;41.572;24.730;2022-11-11T09:39:32;92304.72;;;16.90;47.83
59274;BME280;45044;41.572;24.730;2022-11-11T09:47:20;92311.22;;;16.74;48.75
59274;BME280;45044;41.572;24.730;2022-11-11T09:50:00;92295.69;;;16.72;48.43
59274;BME280;45044;41.572;24.730;2022-11-11T09:52:39;92309.78;;;16.62;49.12
59274;BME280;45044;41.572;24.730;2022-11-11T09:57:57;92304.09;;;16.60;47.93
59274;BME280;45044;41.572;24.730;2022-11-11T10:00:45;92312.50;;;16.51;49.52
59274;BME280;45044;41.572;24.730;2022-11-11T10:03:22;92308.38;;;16.39;50.17
59274;BME280;45044;41.572;24.730;2022-11-11T10:06:00;92320.88;;;16.38;50.82
59274;BME280;45044;41.572;24.730;2022-11-11T10:10:59;92309.63;;;16.01;53.62
59274;BME280;45044;41.572;24.730;2022-11-11T10:13:30;92314.16;;;15.97;54.08
59274;BME280;45044;41.572;24.730;2022-11-11T10:16:13;92308.16;;;15.64;56.32
59274;BME280;45044;41.572;24.730;2022-11-11T10:19:08;92309.69;;;15.39;56.34
59274;BME280;45044;41.572;24.730;2022-11-11T10:21:51;92309.69;;;15.43;57.21
59274;BME280;45044;41.572;24.730;2022-11-11T10:24:45;92299.84;;;15.29;57.76
59274;BME280;45044;41.572;24.730;2022-11-11T10:27:21;92302.47;;;15.07;59.77
59274;BME280;45044;41.572;24.730;2022-11-11T10:29:48;92306.66;;;15.30;58.09
59274;BME280;45044;41.572;24.730;2022-11-11T10:32:22;92301.75;;;15.21;60.10
59274;BME280;45044;41.572;24.730;2022-11-11T10:34:50;92306.63;;;14.93;61.82
59274;BME280;45044;41.572;24.730;2022-11-11T10:37:20;92307.78;;;15.18;61.99
59274;BME280;45044;41.572;24.730;2022-11-11T10:42:24;92291.81;;;14.78;69.87
59274;BME280;45044;41.572;24.730;2022-11-11T10:44:55;92293.41;;;15.08;67.31
59274;BME280;45044;41.572;24.730;2022-11-11T10:50:15;92284.63;;;14.75;68.13
59274;BME280;45044;41.572;24.730;2022-11-11T10:52:49;92291.50;;;15.01;68.51
59274;BME280;45044;41.572;24.730;2022-11-11T10:55:30;92286.16;;;14.76;67.66
59274;BME280;45044;41.572;24.730;2022-11-11T11:00:47;92290.69;;;14.68;62.15
59274;BME280;45044;41.572;24.730;2022-11-11T11:03:22;92296.72;;;14.61;61.00
59274;BME280;45044;41.572;24.730;2022-11-11T11:06:05;92292.91;;;14.58;60.30
59274;BME280;45044;41.572;24.730;2022-11-11T11:08:41;92281.88;;;14.34;61.91
59274;BME280;45044;41.572;24.730;2022-11-11T11:11:34;92285.78;;;13.77;65.91
59274;BME280;45044;41.572;24.730;2022-11-11T11:14:23;92272.41;;;14.19;67.84
59274;BME280;45044;41.572;24.730;2022-11-11T11:16:57;92279.63;;;14.40;67.93
59274;BME280;45044;41.572;24.730;2022-11-11T11:19:26;92268.25;;;14.29;68.33
59274;BME280;45044;41.572;24.730;2022-11-11T11:21:58;92280.63;;;14.03;70.58
59274;BME280;45044;41.572;24.730;2022-11-11T11:24:30;92280.56;;;13.84;77.68
59274;BME280;45044;41.572;24.730;2022-11-11T11:27:00;92279.63;;;13.55;77.54
59274;BME280;45044;41.572;24.730;2022-11-11T11:29:38;92273.34;;;13.21;80.13
59274;BME280;45044;41.572;24.730;2022-11-11T11:32:18;92280.88;;;13.75;76.62
59274;BME280;45044;41.572;24.730;2022-11-11T11:34:52;92281.16;;;13.56;79.61
59274;BME280;45044;41.572;24.730;2022-11-11T11:37:24;92278.03;;;13.46;79.67
59274;BME280;45044;41.572;24.730;2022-11-11T11:40:05;92271.00;;;13.16;79.15
59274;BME280;45044;41.572;24.730;2022-11-11T11:42:34;92274.84;;;13.22;81.33
59274;BME280;45044;41.572;24.730;2022-11-11T11:45:25;92278.16;;;13.12;82.04
59274;BME280;45044;41.572;24.730;2022-11-11T11:48:28;92274.69;;;13.04;85.16
59274;BME280;45044;41.572;24.730;2022-11-11T11:51:18;92269.13;;;13.65;79.60
59274;BME280;45044;41.572;24.730;2022-11-11T12:09:45;92266.56;;;13.84;73.01
59274;BME280;45044;41.572;24.730;2022-11-11T12:12:43;92258.84;;;13.53;76.40
59274;BME280;45044;41.572;24.730;2022-11-11T12:21:00;92266.13;;;13.74;73.85
59274;BME280;45044;41.572;24.730;2022-11-11T12:26:06;92266.72;;;13.46;75.83
59274;BME280;45044;41.572;24.730;2022-11-11T12:31:39;92267.50;;;12.97;80.16
59274;BME280;45044;41.572;24.730;2022-11-11T12:34:20;92267.44;;;12.48;82.57
59274;BME280;45044;41.572;24.730;2022-11-11T12:39:29;92278.63;;;12.76;83.41
59274;BME280;45044;41.572;24.730;2022-11-11T12:42:23;92255.19;;;12.32;83.79
59274;BME280;45044;41.572;24.730;2022-11-11T12:45:11;92282.59;;;12.58;81.54
59274;BME280;45044;41.572;24.730;2022-11-11T12:48:03;92277.25;;;12.51;79.85
59274;BME280;45044;41.572;24.730;2022-11-11T12:53:43;92254.00;;;12.26;81.67
59274;BME280;45044;41.572;24.730;2022-11-11T12:59:14;92285.91;;;12.52;78.46
59274;BME280;45044;41.572;24.730;2022-11-11T13:12:57;92291.00;;;12.72;78.41
59274;BME280;45044;41.572;24.730;2022-11-11T13:15:28;92286.78;;;13.09;76.07
59274;BME280;45044;41.572;24.730;2022-11-11T13:17:58;92286.66;;;13.36;69.18
59274;BME280;45044;41.572;24.730;2022-11-11T13:23:21;92301.97;;;13.19;70.09
59274;BME280;45044;41.572;24.730;2022-11-11T13:25:56;92296.19;;;13.02;70.52
59274;BME280;45044;41.572;24.730;2022-11-11T13:28:39;92302.75;;;13.23;73.42
59274;BME280;45044;41.572;24.730;2022-11-11T13:31:34;92304.13;;;13.06;75.58
59274;BME280;45044;41.572;24.730;2022-11-11T13:34:10;92303.94;;;12.84;77.80
59274;BME280;45044;41.572;24.730;2022-11-11T13:36:46;92305.63;;;12.65;79.46
59274;BME280;45044;41.572;24.730;2022-11-11T13:39:27;92300.50;;;12.42;82.51
59274;BME280;45044;41.572;24.730;2022-11-11T13:41:55;92309.22;;;12.46;82.33
59274;BME280;45044;41.572;24.730;2022-11-11T13:44:27;92302.84;;;12.51;82.71
59274;BME280;45044;41.572;24.730;2022-11-11T13:47:01;92304.06;;;12.57;80.36
59274;BME280;45044;41.572;24.730;2022-11-11T13:49:37;92310.31;;;12.45;81.23
59274;BME280;45044;41.572;24.730;2022-11-11T13:52:38;92319.19;;;12.29;81.86
59274;BME280;45044;41.572;24.730;2022-11-11T13:55:24;92315.31;;;12.19;83.06
59274;BME280;45044;41.572;24.730;2022-11-11T13:57:54;92299.56;;;11.96;86.65
59274;BME280;45044;41.572;24.730;2022-11-11T14:05:44;92316.09;;;11.66;89.49
59274;BME280;45044;41.572;24.730;2022-11-11T14:13:57;92308.47;;;11.06;99.49
59274;BME280;45044;41.572;24.730;2022-11-11T14:21:46;92309.09;;;10.99;97.72
59274;BME280;45044;41.572;24.730;2022-11-11T14:24:33;92312.72;;;10.91;100.00
59274;BME280;45044;41.572;24.730;2022-11-11T14:27:12;92318.78;;;10.72;100.00
59274;BME280;45044;41.572;24.730;2022-11-11T14:29:54;92329.69;;;10.94;100.00
59274;BME280;45044;41.572;24.730;2022-11-11T14:40:29;92328.13;;;10.69;100.00
59274;BME280;45044;41.572;24.730;2022-11-11T14:42:58;92332.06;;;10.79;100.00
59274;BME280;45044;41.572;24.730;2022-11-11T14:47:56;92322.44;;;10.67;100.00
59274;BME280;45044;41.572;24.730;2022-11-11T14:53:00;92322.38;;;10.63;100.00
59274;BME280;45044;41.572;24.730;2022-11-11T14:55:35;92323.38;;;10.55;100.00
59274;BME280;45044;41.572;24.730;2022-11-11T14:58:17;92322.06;;;10.65;100.00
59274;BME280;45044;41.572;24.730;2022-11-11T15:00:50;92318.78;;;10.72;100.00
59274;BME280;45044;41.572;24.730;2022-11-11T15:03:25;92334.97;;;10.74;100.00
59274;BME280;45044;41.572;24.730;2022-11-11T15:06:05;92327.91;;;10.38;100.00
59274;BME280;45044;41.572;24.730;2022-11-11T15:11:20;92327.53;;;10.00;100.00